Time;durP1;ratioP1;P1;durP2;ratioP2;P2;SDS_P1;SDS_P2;PMS_P1;PMS_P2;Temp;Humidity;BMP_temperature;BMP_pressure;BME280_temperature;BME280_humidity;BME280_pressure;Samples;Min_cycle;Max_cycle;Signal;HPM_P1;HPM_P2
2024/01/03 00:02:01;;;;;;;;;;;;;;;15.28;100.00;101515.75;10647102;27;20074;-82
2024/01/03 00:07:25;;;;;;;6.10;4.70;;;;;;;15.07;100.00;101520.00;10639316;27;19990;-82
2024/01/03 00:12:49;;;;;;;6.05;3.40;;;;;;;14.89;100.00;101510.97;10618172;27;20047;-82
2024/01/03 00:18:33;;;;;;;9.40;3.90;;;;;;;14.86;100.00;101510.91;10620007;27;20051;-84
2024/01/03 00:24:02;;;;;;;7.78;4.55;;;;;;;14.72;100.00;101521.41;10633648;27;20053;-83
2024/01/03 00:29:56;;;;;;;6.18;3.20;;;;;;;14.59;100.00;101516.81;10629691;27;20047;-83
2024/01/03 00:35:19;;;;;;;5.65;2.85;;;;;;;14.46;100.00;101509.56;10600617;27;20039;-83
2024/01/03 00:41:02;;;;;;;5.38;3.10;;;;;;;14.33;100.00;101525.34;10622477;27;20225;-83
2024/01/03 00:46:24;;;;;;;7.47;3.50;;;;;;;14.32;100.00;101514.69;10630310;27;20043;-83
2024/01/03 00:51:49;;;;;;;5.78;3.08;;;;;;;14.33;100.00;101522.69;10621555;27;20106;-83
2024/01/03 00:57:15;;;;;;;4.10;2.88;;;;;;;14.57;100.00;101510.63;10624939;27;20043;-82
2024/01/03 01:02:37;;;;;;;9.73;6.53;;;;;;;14.56;100.00;101514.16;10632779;27;20059;-83
2024/01/03 01:08:00;;;;;;;9.50;7.95;;;;;;;14.38;100.00;101517.44;10619069;27;20055;-83
2024/01/03 01:13:24;;;;;;;6.70;5.20;;;;;;;14.19;100.00;101508.34;10643551;27;20431;-83
2024/01/03 01:18:47;;;;;;;6.05;5.45;;;;;;;14.09;100.00;101502.91;10630404;27;20491;-83
2024/01/03 01:24:09;;;;;;;6.53;3.95;;;;;;;14.00;100.00;101508.06;10619794;27;20051;-82
2024/01/03 01:29:33;;;;;;;6.10;4.00;;;;;;;13.94;100.00;101516.84;10619935;27;20042;-82
2024/01/03 01:34:56;;;;;;;3.92;3.17;;;;;;;14.00;100.00;101506.31;10630280;27;20043;-83
2024/01/03 01:40:19;;;;;;;7.75;4.40;;;;;;;14.00;100.00;101510.72;10618193;27;20043;-82
2024/01/03 01:45:43;;;;;;;9.65;3.72;;;;;;;14.07;100.00;101499.31;10609815;27;20050;-83
2024/01/03 01:51:06;;;;;;;8.73;4.45;;;;;;;13.96;100.00;101512.47;10647741;27;20042;-82
2024/01/03 01:56:31;;;;;;;6.68;4.28;;;;;;;13.97;100.00;101522.22;10611703;27;20050;-84
2024/01/03 02:01:58;;;;;;;5.53;4.03;;;;;;;13.89;100.00;101505.28;10604641;27;20057;-84
2024/01/03 02:07:22;;;;;;;8.35;4.10;;;;;;;13.76;100.00;101516.59;10632211;27;20053;-82
2024/01/03 02:12:45;;;;;;;5.20;2.60;;;;;;;13.72;100.00;101517.44;10593292;27;20043;-83
2024/01/03 02:18:11;;;;;;;6.80;3.60;;;;;;;13.95;100.00;101502.72;10592225;27;20049;-82
2024/01/03 02:23:37;;;;;;;5.90;4.40;;;;;;;13.95;100.00;101526.59;10619610;27;20201;-82
2024/01/03 02:29:01;;;;;;;7.28;4.68;;;;;;;13.72;100.00;101520.94;10591379;27;20050;-82
2024/01/03 02:34:23;;;;;;;15.20;8.27;;;;;;;13.59;100.00;101502.19;10620465;27;20138;-81
2024/01/03 02:39:47;;;;;;;9.38;5.40;;;;;;;13.46;100.00;101509.03;10597725;27;20055;-82
2024/01/03 02:45:10;;;;;;;7.28;5.00;;;;;;;13.38;100.00;101503.63;10608477;27;20042;-82
2024/01/03 02:50:32;;;;;;;10.98;5.05;;;;;;;13.27;100.00;101505.19;10622226;27;20054;-81
2024/01/03 02:56:02;;;;;;;10.25;4.97;;;;;;;13.05;100.00;101506.59;10615849;27;20054;-83
2024/01/03 03:01:24;;;;;;;7.70;4.95;;;;;;;12.91;100.00;101500.16;10603750;27;20070;-82
2024/01/03 03:06:47;;;;;;;7.53;4.80;;;;;;;13.07;100.00;101502.19;10642885;27;20134;-81
2024/01/03 03:12:11;;;;;;;13.52;7.10;;;;;;;12.86;100.00;101498.28;10591258;27;20047;-81
2024/01/03 03:17:34;;;;;;;22.50;20.33;;;;;;;12.85;100.00;101494.75;10606778;27;20418;-81
2024/01/03 03:22:56;;;;;;;9.65;8.48;;;;;;;12.68;100.00;101493.50;10634208;27;20126;-82
2024/01/03 03:28:23;;;;;;;10.88;6.00;;;;;;;12.58;100.00;101499.53;10625554;27;20043;-81
2024/01/03 03:33:45;;;;;;;5.90;4.97;;;;;;;12.81;100.00;101499.94;10625279;27;20042;-82
2024/01/03 03:39:08;;;;;;;5.95;5.32;;;;;;;12.72;100.00;101488.31;10620796;27;20050;-81
2024/01/03 03:44:33;;;;;;;5.40;3.10;;;;;;;13.07;100.00;101493.34;10595538;27;20138;-81
2024/01/03 03:49:55;;;;;;;8.63;3.35;;;;;;;12.82;100.00;101494.66;10599368;27;20043;-81
2024/01/03 03:55:18;;;;;;;4.05;3.28;;;;;;;12.76;100.00;101492.81;10610645;27;20037;-82
2024/01/03 04:00:42;;;;;;;5.90;3.70;;;;;;;12.85;100.00;101493.84;10608992;27;20127;-81
2024/01/03 04:06:05;;;;;;;7.13;3.92;;;;;;;12.83;100.00;101500.84;10635185;27;20094;-81
2024/01/03 04:11:27;;;;;;;6.50;4.30;;;;;;;12.85;100.00;101497.38;10605999;27;20047;-81
2024/01/03 04:16:51;;;;;;;5.85;4.03;;;;;;;12.56;100.00;101501.22;10602065;27;20054;-81
2024/01/03 04:22:14;;;;;;;12.23;6.50;;;;;;;12.57;100.00;101503.03;10610800;27;20132;-81
2024/01/03 04:27:37;;;;;;;7.65;4.00;;;;;;;12.30;100.00;101498.06;10612697;27;20057;-82
2024/01/03 04:33:04;;;;;;;5.95;4.10;;;;;;;12.36;100.00;101511.44;10622781;27;20506;-82
2024/01/03 04:38:28;;;;;;;8.63;5.95;;;;;;;12.27;100.00;101506.84;10643779;27;20134;-83
2024/01/03 04:43:50;;;;;;;10.15;6.65;;;;;;;12.13;100.00;101505.69;10618862;27;20483;-82
2024/01/03 04:49:14;;;;;;;6.10;4.93;;;;;;;12.12;100.00;101505.63;10618269;27;20092;-82
2024/01/03 04:54:38;;;;;;;7.88;4.60;;;;;;;11.95;100.00;101522.03;10617755;27;20051;-82
2024/01/03 05:00:00;;;;;;;6.82;3.83;;;;;;;11.92;100.00;101521.97;10639847;27;20046;-82
2024/01/03 05:05:26;;;;;;;4.47;2.97;;;;;;;12.20;100.00;101512.00;10629925;27;20047;-82
2024/01/03 05:10:48;;;;;;;25.02;13.93;;;;;;;12.45;100.00;101516.03;10632796;27;20057;-81
2024/01/03 05:16:11;;;;;;;27.13;19.05;;;;;;;12.92;100.00;101519.59;10620155;27;20080;-81
2024/01/03 05:21:36;;;;;;;14.02;12.52;;;;;;;12.92;100.00;101523.13;10622224;27;20679;-81
2024/01/03 05:26:58;;;;;;;23.70;12.05;;;;;;;12.83;100.00;101512.34;10622475;27;20038;-83
2024/01/03 05:32:20;;;;;;;31.85;16.83;;;;;;;12.51;100.00;101519.69;10639281;27;20107;-82
2024/01/03 05:37:44;;;;;;;22.42;13.25;;;;;;;12.37;100.00;101526.47;10617612;27;20043;-81
2024/01/03 05:43:08;;;;;;;15.85;10.27;;;;;;;12.19;100.00;101515.50;10606069;27;20431;-81
2024/01/03 05:48:31;;;;;;;17.70;10.70;;;;;;;12.27;100.00;101521.84;10622464;27;20050;-82
2024/01/03 05:53:56;;;;;;;54.38;27.52;;;;;;;12.37;100.00;101531.75;10617671;27;20096;-83
2024/01/03 05:59:20;;;;;;;17.42;13.15;;;;;;;12.58;100.00;101537.50;10618535;27;20597;-82
2024/01/03 06:04:43;;;;;;;25.85;17.88;;;;;;;12.49;100.00;101547.88;10611740;27;20116;-81
2024/01/03 06:10:09;;;;;;;60.30;44.80;;;;;;;12.33;100.00;101543.16;10606357;27;20413;-82
2024/01/03 06:15:32;;;;;;;37.78;28.95;;;;;;;12.43;100.00;101557.47;10621049;27;20546;-83
2024/01/03 06:20:54;;;;;;;17.38;13.07;;;;;;;12.60;100.00;101551.63;10609775;27;20046;-83
2024/01/03 06:26:21;;;;;;;57.47;49.10;;;;;;;15.44;100.00;101541.59;10583150;27;20051;-84
2024/01/03 06:31:43;;;;;;;18.70;16.70;;;;;;;18.91;95.12;101559.94;10634193;27;20166;-83
2024/01/03 06:37:07;;;;;;;59.70;48.40;;;;;;;20.79;75.03;101548.34;10610645;27;20051;-85
2024/01/03 06:42:32;;;;;;;56.70;45.92;;;;;;;22.43;63.60;101559.91;10562734;28;20074;-84
2024/01/03 06:47:55;;;;;;;15.10;12.00;;;;;;;22.56;57.54;101569.50;10598461;27;20530;-84
2024/01/03 06:53:18;;;;;;;9.98;7.00;;;;;;;22.42;57.69;101565.31;10626431;27;20050;-84
2024/01/03 06:58:42;;;;;;;10.88;8.30;;;;;;;23.62;53.01;101570.69;10598939;27;20050;-85
2024/01/03 07:04:05;;;;;;;7.28;4.35;;;;;;;24.42;48.82;101581.13;10604236;27;20059;-84
2024/01/03 07:09:28;;;;;;;8.07;6.45;;;;;;;25.12;46.96;101579.97;10627390;27;20063;-84
2024/01/03 07:14:52;;;;;;;8.35;4.68;;;;;;;26.49;43.14;101577.97;10613591;27;20390;-84
2024/01/03 07:20:14;;;;;;;22.50;16.70;;;;;;;26.05;41.81;101594.00;10625814;27;20042;-84
2024/01/03 07:25:37;;;;;;;7.57;4.75;;;;;;;25.59;43.18;101580.28;10598894;27;20055;-84
2024/01/03 07:31:02;;;;;;;4.03;2.72;;;;;;;26.46;41.71;101597.03;10614779;27;20036;-85
2024/01/03 07:36:25;;;;;;;4.43;3.40;;;;;;;26.35;39.32;101601.97;10588304;27;20647;-85
2024/01/03 07:41:48;;;;;;;5.43;4.13;;;;;;;26.68;39.74;101587.19;10586571;27;20070;-85
2024/01/03 07:47:12;;;;;;;9.98;8.07;;;;;;;28.78;36.27;101576.50;10602828;27;20039;-84
2024/01/03 07:52:35;;;;;;;8.10;4.43;;;;;;;29.12;33.82;101586.66;10615509;27;20096;-85
2024/01/03 07:57:57;;;;;;;5.97;3.78;;;;;;;29.37;34.45;101578.19;10581158;28;20045;-86
2024/01/03 08:03:22;;;;;;;4.20;2.33;;;;;;;29.43;32.98;101577.00;10607716;27;20054;-84
2024/01/03 08:08:45;;;;;;;12.27;10.48;;;;;;;29.81;32.73;101569.59;10623330;27;20039;-85
2024/01/03 08:14:07;;;;;;;14.02;11.02;;;;;;;30.83;30.38;101556.84;10570655;27;20403;-86
2024/01/03 08:19:31;;;;;;;7.85;5.15;;;;;;;31.49;28.96;101559.44;10591479;27;20055;-85
2024/01/03 08:24:54;;;;;;;17.70;9.13;;;;;;;32.40;27.82;101557.50;10611011;27;20043;-84
2024/01/03 08:30:17;;;;;;;9.25;7.35;;;;;;;32.97;27.31;101556.63;10600517;27;20099;-85
2024/01/03 08:35:41;;;;;;;6.68;5.03;;;;;;;32.82;27.04;101550.31;10617415;27;20053;-84
2024/01/03 08:41:04;;;;;;;6.55;3.42;;;;;;;32.06;27.23;101535.94;10605223;27;20069;-85
2024/01/03 08:46:30;;;;;;;3.42;2.25;;;;;;;31.17;28.19;101526.72;10599739;27;20047;-84
2024/01/03 08:51:55;;;;;;;6.53;4.23;;;;;;;30.79;29.98;101528.88;10601589;27;20047;-85
2024/01/03 08:57:18;;;;;;;6.22;3.72;;;;;;;31.27;29.82;101511.56;10618560;27;20161;-85
2024/01/03 09:02:47;;;;;;;4.50;3.53;;;;;;;30.86;30.17;101505.72;10645563;27;20039;-83
2024/01/03 09:08:17;;;;;;;8.20;4.13;;;;;;;30.22;30.90;101493.91;10594722;27;20513;-84
2024/01/03 09:13:41;;;;;;;4.55;2.65;;;;;;;29.86;30.56;101492.19;10611805;27;20542;-85
2024/01/03 09:19:04;;;;;;;3.00;2.45;;;;;;;30.83;28.54;101491.41;10603348;27;20053;-84
2024/01/03 09:24:29;;;;;;;3.38;2.10;;;;;;;31.71;27.26;101471.66;10602378;27;20039;-86
2024/01/03 09:29:52;;;;;;;4.43;2.65;;;;;;;31.77;26.73;101447.56;10594331;27;20145;-88
2024/01/03 09:35:14;;;;;;;5.30;3.72;;;;;;;31.50;26.78;101443.81;10612833;27;20546;-86
2024/01/03 09:40:38;;;;;;;3.55;2.20;;;;;;;30.69;28.16;101448.56;10608048;27;20054;-87
2024/01/03 09:46:01;;;;;;;5.72;4.10;;;;;;;30.51;28.95;101435.09;10594440;27;20100;-88
2024/01/03 09:51:24;;;;;;;14.75;9.48;;;;;;;29.37;30.97;101425.81;10634857;27;20122;-88
2024/01/03 09:56:48;;;;;;;7.72;4.35;;;;;;;28.23;33.83;101416.97;10629114;27;20112;-87
2024/01/03 10:02:12;;;;;;;12.27;6.93;;;;;;;28.24;34.74;101410.56;10608500;27;20047;-87
2024/01/03 10:07:36;;;;;;;10.57;7.10;;;;;;;28.27;35.41;101418.59;10607465;27;20092;-87
2024/01/03 10:13:15;;;;;;;8.70;5.18;;;;;;;27.90;35.32;101408.50;10594475;27;20054;-86
2024/01/03 10:18:37;;;;;;;5.20;3.30;;;;;;;26.96;39.39;101398.19;10623043;27;20046;-86
2024/01/03 10:24:03;;;;;;;6.22;4.50;;;;;;;26.70;41.92;101413.72;10634165;27;20047;-86
2024/01/03 10:29:29;;;;;;;7.38;4.25;;;;;;;26.79;42.75;101403.38;10610749;27;20051;-86
2024/01/03 10:34:51;;;;;;;13.27;7.18;;;;;;;24.13;51.34;101382.25;10591266;27;20083;-86
2024/01/03 10:40:14;;;;;;;5.35;3.67;;;;;;;22.89;66.97;101387.47;10590719;27;20047;-87
2024/01/03 10:45:38;;;;;;;8.20;5.95;;;;;;;22.34;68.39;101382.50;10605192;27;20075;-87
2024/01/03 10:51:01;;;;;;;14.63;10.85;;;;;;;22.34;63.04;101379.78;10604756;27;20047;-88
2024/01/03 10:56:24;;;;;;;7.05;3.90;;;;;;;21.97;64.33;101381.53;10590578;27;20123;-87
2024/01/03 11:01:56;;;;;;;5.55;3.03;;;;;;;21.69;67.09;101383.88;10593882;27;20062;-87
2024/01/03 11:07:22;;;;;;;6.22;2.60;;;;;;;21.42;68.58;101378.13;10591914;27;20052;-87
2024/01/03 11:12:45;;;;;;;3.65;2.70;;;;;;;21.20;68.69;101374.06;10628390;27;20068;-87
2024/01/03 11:18:10;;;;;;;4.80;2.47;;;;;;;21.03;68.76;101384.19;10643111;27;20558;-87
2024/01/03 11:23:33;;;;;;;5.72;3.15;;;;;;;20.93;67.42;101375.44;10603817;27;20078;-87
2024/01/03 11:28:55;;;;;;;4.80;3.53;;;;;;;20.86;65.82;101367.50;10586579;27;20506;-87
2024/01/03 11:34:49;;;;;;;4.05;2.67;;;;;;;20.76;64.08;101372.13;10596074;27;20039;-87
2024/01/03 11:40:21;;;;;;;3.10;2.63;;;;;;;20.53;66.35;101366.25;10616992;27;20061;-87
2024/01/03 11:45:44;;;;;;;4.28;2.67;;;;;;;20.61;68.82;101359.84;10642680;27;20045;-86
2024/01/03 11:51:25;;;;;;;3.65;2.85;;;;;;;20.49;70.87;101351.09;10633743;27;20054;-87
2024/01/03 11:56:48;;;;;;;7.13;3.70;;;;;;;20.16;76.06;101347.09;10588317;28;20047;-87
2024/01/03 12:02:13;;;;;;;9.35;5.60;;;;;;;19.76;84.21;101338.72;10589104;28;20051;-87
2024/01/03 12:07:37;;;;;;;5.18;3.08;;;;;;;19.55;89.61;101339.88;10612073;27;20088;-86
2024/01/03 12:13:00;;;;;;;5.20;2.75;;;;;;;19.56;91.00;101346.97;10626472;27;20043;-87
2024/01/03 12:18:25;;;;;;;11.38;7.68;;;;;;;19.46;93.85;101346.22;10588471;28;20142;-85
2024/01/03 12:23:59;;;;;;;14.43;8.27;;;;;;;19.30;98.89;101352.59;10592393;27;20047;-83
2024/01/03 12:29:22;;;;;;;6.35;3.33;;;;;;;19.35;98.84;101356.16;10630384;27;20049;-86
2024/01/03 12:34:47;;;;;;;9.75;6.07;;;;;;;19.55;97.17;101353.28;10624177;27;20139;-83
2024/01/03 12:40:14;;;;;;;10.75;6.10;;;;;;;19.65;96.59;101348.69;10600512;27;20050;-85
2024/01/03 12:45:38;;;;;;;11.48;5.88;;;;;;;19.65;95.92;101344.22;10628606;27;20625;-84
2024/01/03 12:51:02;;;;;;;10.52;5.93;;;;;;;19.46;99.02;101338.19;10602996;27;20043;-85
2024/01/03 12:56:30;;;;;;;6.80;4.90;;;;;;;19.60;100.00;101340.72;10592325;27;21791;-82
2024/01/03 13:01:52;;;;;;;14.05;7.35;;;;;;;20.25;95.92;101339.81;10607963;27;20055;-82
2024/01/03 13:07:15;;;;;;;9.82;6.55;;;;;;;20.54;89.02;101344.78;10593645;27;20036;-81
2024/01/03 13:12:39;;;;;;;9.30;5.28;;;;;;;21.14;83.43;101335.66;10605400;27;20123;-85
2024/01/03 13:18:02;;;;;;;8.18;4.60;;;;;;;21.64;73.48;101337.41;10605092;27;20076;-80
2024/01/03 13:23:24;;;;;;;5.25;2.55;;;;;;;21.79;68.47;101345.16;10592957;27;20525;-85
2024/01/03 13:28:48;;;;;;;3.83;2.90;;;;;;;21.84;64.68;101344.13;10587207;27;20407;-80
2024/01/03 13:34:11;;;;;;;5.85;2.90;;;;;;;21.66;67.61;101349.03;10587972;27;20039;-88
2024/01/03 13:39:33;;;;;;;7.20;3.92;;;;;;;21.67;66.02;101358.81;10593080;27;20078;-82
2024/01/03 13:44:58;;;;;;;4.55;2.72;;;;;;;21.51;62.43;101352.00;10568437;27;20527;-85
2024/01/03 13:50:20;;;;;;;5.30;2.65;;;;;;;21.29;64.40;101343.47;10587915;27;20056;-84
2024/01/03 13:55:43;;;;;;;6.70;3.65;;;;;;;20.85;67.60;101330.84;10605356;27;20445;-82
2024/01/03 14:01:09;;;;;;;8.93;5.40;;;;;;;20.40;72.70;101328.00;10592671;27;20129;-86
2024/01/03 14:06:32;;;;;;;5.38;2.85;;;;;;;20.19;74.85;101328.28;10591510;27;20043;-80
2024/01/03 14:11:54;;;;;;;4.10;1.90;;;;;;;19.60;82.76;101316.59;10591388;27;20487;-84
2024/01/03 14:17:19;;;;;;;10.02;2.35;;;;;;;19.38;88.29;101323.06;10589016;27;20047;-83
2024/01/03 14:22:42;;;;;;;5.72;2.38;;;;;;;19.09;92.25;101328.75;10591768;27;20456;-83
2024/01/03 14:28:05;;;;;;;4.55;3.10;;;;;;;18.95;94.57;101347.63;10604077;27;20039;-80
2024/01/03 14:33:29;;;;;;;5.38;3.40;;;;;;;18.91;95.31;101350.31;10602762;27;20043;-85
2024/01/03 14:38:52;;;;;;;11.15;3.90;;;;;;;18.70;96.81;101356.78;10589341;27;20043;-84
2024/01/03 14:44:18;;;;;;;9.60;4.80;;;;;;;18.37;100.00;101357.88;10582145;27;20039;-84
2024/01/03 14:49:43;;;;;;;12.60;9.82;;;;;;;18.22;100.00;101358.88;10600528;27;20100;-85
2024/01/03 14:55:08;;;;;;;14.65;9.82;;;;;;;18.11;100.00;101352.69;10582108;27;20043;-83
2024/01/03 15:00:30;;;;;;;27.50;24.58;;;;;;;17.76;100.00;101362.66;10601751;27;20043;-81
2024/01/03 15:05:54;;;;;;;31.10;26.75;;;;;;;17.33;100.00;101360.09;10602288;27;20133;-82
2024/01/03 15:11:18;;;;;;;17.35;12.75;;;;;;;17.08;100.00;101361.03;10602453;27;20675;-80
2024/01/03 15:16:40;;;;;;;28.23;22.63;;;;;;;16.80;100.00;101359.31;10588944;27;20071;-84
2024/01/03 15:22:09;;;;;;;14.32;11.60;;;;;;;16.59;100.00;101365.47;10617710;27;20035;-82
2024/01/03 15:27:33;;;;;;;18.30;12.57;;;;;;;16.60;100.00;101369.97;10564270;28;20055;-84
2024/01/03 15:32:56;;;;;;;26.75;18.38;;;;;;;16.39;100.00;101376.13;10589227;27;20039;-82
2024/01/03 15:38:23;;;;;;;30.60;27.40;;;;;;;16.14;100.00;101380.50;10590087;27;20079;-84
2024/01/03 15:43:45;;;;;;;29.05;22.75;;;;;;;15.98;100.00;101383.09;10601430;28;20051;-82
2024/01/03 15:49:10;;;;;;;33.17;25.88;;;;;;;15.76;100.00;101385.69;10634455;27;20038;-80
2024/01/03 15:54:35;;;;;;;23.92;17.13;;;;;;;15.53;100.00;101398.00;10589885;27;20170;-83
2024/01/03 15:59:58;;;;;;;23.67;14.35;;;;;;;15.69;100.00;101402.50;10582146;27;20134;-83
2024/01/03 16:05:20;;;;;;;23.00;14.65;;;;;;;15.54;100.00;101397.13;10586477;27;20051;-82
2024/01/03 16:10:46;;;;;;;15.35;10.48;;;;;;;15.46;100.00;101391.72;10585455;27;20051;-83
2024/01/03 16:16:08;;;;;;;23.10;18.30;;;;;;;15.27;100.00;101386.28;10595437;27;20745;-82
2024/01/03 16:21:31;;;;;;;23.55;19.98;;;;;;;15.10;100.00;101387.03;10583739;27;20155;-83
2024/01/03 16:27:02;;;;;;;23.83;17.42;;;;;;;15.05;100.00;101383.47;10608861;27;20051;-85
2024/01/03 16:32:29;;;;;;;14.85;11.43;;;;;;;14.81;100.00;101377.97;10630568;27;20051;-84
2024/01/03 16:37:52;;;;;;;17.48;12.43;;;;;;;14.78;100.00;101383.25;10593321;27;20058;-82
2024/01/03 16:43:19;;;;;;;15.82;12.43;;;;;;;14.55;100.00;101396.34;10607873;27;20039;-82
2024/01/03 16:48:42;;;;;;;26.77;22.38;;;;;;;14.45;100.00;101390.91;10608393;27;20043;-82
2024/01/03 16:54:05;;;;;;;24.80;20.38;;;;;;;14.42;100.00;101378.50;10625962;27;20103;-82
2024/01/03 16:59:29;;;;;;;17.30;13.45;;;;;;;14.23;100.00;101369.44;10613010;27;20127;-83
2024/01/03 17:04:54;;;;;;;11.10;8.73;;;;;;;14.27;100.00;101375.63;10593490;27;20047;-84
2024/01/03 17:10:18;;;;;;;22.88;18.77;;;;;;;14.33;100.00;101375.69;10586651;27;20054;-82
2024/01/03 17:15:43;;;;;;;37.20;33.65;;;;;;;14.29;100.00;101381.88;10593206;27;20066;-87
2024/01/03 17:21:12;;;;;;;23.50;21.15;;;;;;;14.15;100.00;101386.13;10597599;27;20039;-85
2024/01/03 17:26:36;;;;;;;;;;;;;;;14.14;100.00;101395.88;10608711;27;20039;-84
2024/01/03 17:32:01;;;;;;;39.75;35.75;;;;;;;13.98;100.00;101401.00;10607610;27;19926;-85
2024/01/03 17:37:23;;;;;;;18.77;13.48;;;;;;;13.92;100.00;101404.44;10604665;27;20039;-83
2024/01/03 17:42:46;;;;;;;12.10;10.88;;;;;;;13.95;100.00;101409.81;10612589;27;20058;-84
2024/01/03 17:48:10;;;;;;;10.80;6.80;;;;;;;14.34;100.00;101409.34;10574572;27;20047;-84
2024/01/03 17:53:32;;;;;;;28.55;20.38;;;;;;;14.14;100.00;101419.75;10603539;27;20051;-85
2024/01/03 17:58:55;;;;;;;41.50;36.75;;;;;;;13.97;100.00;101421.34;10554950;27;20093;-83
2024/01/03 18:04:19;;;;;;;15.60;7.75;;;;;;;13.75;100.00;101413.97;10568456;28;20097;-85
2024/01/03 18:09:41;;;;;;;23.98;16.38;;;;;;;13.80;100.00;101423.75;10584646;27;20051;-86
2024/01/03 18:15:04;;;;;;;55.72;45.60;;;;;;;13.85;100.00;101416.75;10585496;27;20055;-85
2024/01/03 18:20:28;;;;;;;17.42;14.45;;;;;;;13.71;100.00;101414.81;10573634;27;20051;-87
2024/01/03 18:25:51;;;;;;;8.13;6.07;;;;;;;13.77;100.00;101420.19;10564442;27;20408;-85
2024/01/03 18:31:13;;;;;;;7.43;5.35;;;;;;;13.61;100.00;101413.78;10601597;27;20106;-84
2024/01/03 18:36:38;;;;;;;10.32;6.10;;;;;;;13.68;100.00;101405.03;10608379;27;20106;-83
2024/01/03 18:42:02;;;;;;;8.75;6.70;;;;;;;13.72;100.00;101401.53;10592485;27;20082;-82
2024/01/03 18:47:25;;;;;;;10.40;7.50;;;;;;;13.68;100.00;101396.19;10552375;28;20048;-82
2024/01/03 18:52:49;;;;;;;8.45;5.32;;;;;;;13.75;100.00;101396.28;10567814;27;20104;-82
2024/01/03 18:58:12;;;;;;;8.43;5.68;;;;;;;13.89;100.00;101397.34;10605673;27;20104;-82
2024/01/03 19:03:34;;;;;;;20.10;14.77;;;;;;;13.97;100.00;101400.09;10596911;27;20055;-82
2024/01/03 19:08:58;;;;;;;18.20;14.18;;;;;;;13.79;100.00;101403.41;10592736;27;20039;-84
2024/01/03 19:14:21;;;;;;;66.63;32.15;;;;;;;13.96;100.00;101401.88;10591965;27;20526;-83
2024/01/03 19:19:43;;;;;;;29.00;16.73;;;;;;;13.96;100.00;101395.66;10605577;27;20062;-85
2024/01/03 19:25:09;;;;;;;12.02;7.22;;;;;;;14.04;100.00;101391.34;10589653;27;20050;-82
2024/01/03 19:30:31;;;;;;;8.73;5.50;;;;;;;14.42;100.00;101390.88;10535035;28;20404;-83
2024/01/03 19:35:54;;;;;;;9.20;4.20;;;;;;;14.57;100.00;101401.66;10583412;27;20047;-84
2024/01/03 19:41:18;;;;;;;6.30;4.28;;;;;;;14.64;100.00;101395.50;10602528;28;20057;-84
2024/01/03 19:46:41;;;;;;;9.20;4.78;;;;;;;14.66;100.00;101386.69;10604370;28;20754;-84
2024/01/03 19:52:04;;;;;;;7.00;4.20;;;;;;;14.85;100.00;101393.03;10590701;28;20050;-84
2024/01/03 19:57:30;;;;;;;9.68;6.22;;;;;;;15.16;100.00;101399.50;10596351;27;20048;-84
2024/01/03 20:02:53;;;;;;;9.65;7.57;;;;;;;15.06;100.00;101390.56;10610052;27;20122;-85
2024/01/03 20:08:15;;;;;;;5.90;4.65;;;;;;;14.98;100.00;101399.34;10611831;27;20133;-85
2024/01/03 20:13:39;;;;;;;11.70;7.90;;;;;;;14.90;100.00;101403.75;10618210;27;20054;-86
2024/01/03 20:19:02;;;;;;;20.17;12.55;;;;;;;14.77;100.00;101412.50;10610049;27;20742;-84
2024/01/03 20:24:26;;;;;;;8.45;5.25;;;;;;;14.67;100.00;101416.81;10601055;27;20131;-86
2024/01/03 20:29:50;;;;;;;9.00;4.65;;;;;;;14.60;100.00;101422.94;10583403;27;20051;-86
2024/01/03 20:35:13;;;;;;;8.88;5.60;;;;;;;14.38;100.00;101428.91;10605629;27;20047;-87
2024/01/03 20:40:36;;;;;;;47.38;29.13;;;;;;;14.27;100.00;101436.72;10602714;27;20123;-88
2024/01/03 20:46:00;;;;;;;13.15;8.68;;;;;;;14.42;100.00;101425.41;10609533;27;20039;-87
2024/01/03 20:51:22;;;;;;;12.60;6.95;;;;;;;14.30;100.00;101419.06;10593115;27;20077;-84
2024/01/03 20:56:46;;;;;;;8.63;6.53;;;;;;;14.28;100.00;101417.25;10586107;28;20051;-84
2024/01/03 21:02:11;;;;;;;10.45;7.82;;;;;;;14.24;100.00;101415.47;10577175;28;20134;-86
2024/01/03 21:07:33;;;;;;;10.13;7.40;;;;;;;14.17;100.00;101409.19;10591084;27;20076;-87
2024/01/03 21:12:56;;;;;;;9.25;5.85;;;;;;;14.27;100.00;101399.53;10587572;27;20048;-86
2024/01/03 21:18:20;;;;;;;9.38;5.80;;;;;;;14.05;100.00;101400.16;10592416;28;20043;-86
2024/01/03 21:23:42;;;;;;;10.32;6.20;;;;;;;13.87;100.00;101391.13;10589727;28;20062;-84
2024/01/03 21:29:05;;;;;;;7.07;5.13;;;;;;;13.70;100.00;101397.09;10591236;28;20035;-83
2024/01/03 21:34:29;;;;;;;7.70;6.20;;;;;;;13.56;100.00;101402.22;10548652;28;20051;-84
2024/01/03 21:39:52;;;;;;;9.25;6.10;;;;;;;13.33;100.00;101378.00;10575687;28;20511;-85
2024/01/03 21:45:14;;;;;;;7.88;5.35;;;;;;;13.35;100.00;101368.31;10577509;28;20056;-85
2024/01/03 21:50:39;;;;;;;7.88;4.88;;;;;;;13.41;100.00;101372.81;10493259;27;1855686;-85
2024/01/03 21:56:02;;;;;;;10.20;7.95;;;;;;;13.52;100.00;101365.94;10622395;27;20051;-86
2024/01/03 22:01:27;;;;;;;8.40;4.50;;;;;;;13.73;100.00;101359.97;10635016;27;20138;-87
2024/01/03 22:06:53;;;;;;;5.65;4.00;;;;;;;14.20;100.00;101352.56;10591823;27;20039;-85
2024/01/03 22:12:17;;;;;;;5.45;4.07;;;;;;;14.37;100.00;101353.63;10606598;27;20039;-85
2024/01/03 22:17:40;;;;;;;6.18;4.00;;;;;;;14.49;100.00;101351.13;10600383;27;20050;-86
2024/01/03 22:23:04;;;;;;;8.25;4.22;;;;;;;14.52;100.00;101342.25;10592919;27;20482;-86
2024/01/03 22:28:27;;;;;;;5.60;4.03;;;;;;;14.61;100.00;101342.34;10591276;27;20138;-86
2024/01/03 22:33:49;;;;;;;5.60;3.53;;;;;;;14.89;100.00;101332.84;10596539;27;20493;-85
2024/01/03 22:39:13;;;;;;;4.38;3.35;;;;;;;15.20;100.00;101329.47;10592955;27;20051;-85
2024/01/03 22:44:36;;;;;;;6.18;3.17;;;;;;;15.44;100.00;101331.38;10588409;27;20411;-86
2024/01/03 22:49:58;;;;;;;5.45;3.42;;;;;;;15.43;100.00;101326.94;10593427;27;20076;-87
2024/01/03 22:55:22;;;;;;;5.63;3.95;;;;;;;15.32;100.00;101329.53;10586140;27;20073;-85
2024/01/03 23:00:45;;;;;;;7.00;5.10;;;;;;;15.16;100.00;101327.69;10603454;27;20508;-85
2024/01/03 23:06:09;;;;;;;6.40;4.50;;;;;;;14.98;100.00;101316.94;10590330;27;20051;-85
2024/01/03 23:11:33;;;;;;;6.07;3.72;;;;;;;14.98;100.00;101312.50;10593825;27;20066;-84
2024/01/03 23:16:56;;;;;;;4.03;3.50;;;;;;;15.24;100.00;101301.13;10580878;27;20489;-85
2024/01/03 23:22:19;;;;;;;5.68;4.05;;;;;;;15.59;100.00;101296.00;10588820;27;20051;-86
2024/01/03 23:27:43;;;;;;;7.07;4.10;;;;;;;15.70;100.00;101310.22;10604473;27;20051;-87
2024/01/03 23:33:05;;;;;;;4.72;3.60;;;;;;;15.64;100.00;101302.22;10595984;27;21238;-87
2024/01/03 23:38:28;;;;;;;6.20;3.88;;;;;;;15.43;100.00;101311.84;10590007;27;20046;-87
2024/01/03 23:43:52;;;;;;;5.60;3.55;;;;;;;15.35;100.00;101318.94;10592732;28;20573;-87
2024/01/03 23:49:15;;;;;;;6.00;3.50;;;;;;;15.27;100.00;101314.44;10595087;28;20058;-86
2024/01/03 23:54:37;;;;;;;4.78;3.30;;;;;;;15.33;100.00;101311.81;10587885;28;20096;-86
